sensor_id;sensor_type;location;lat;lon;timestamp;P1;durP1;ratioP1;P2;durP2;ratioP2
60014;SDS011;45867;52.480;6.056;2023-03-01T01:02:23;30.13;;;14.18;;
60014;SDS011;45867;52.480;6.056;2023-03-01T01:04:49;30.33;;;13.57;;
60014;SDS011;45867;52.480;6.056;2023-03-01T01:07:15;26.60;;;13.93;;
60014;SDS011;45867;52.480;6.056;2023-03-01T01:09:41;32.47;;;13.07;;
60014;SDS011;45867;52.480;6.056;2023-03-01T01:12:07;33.45;;;13.93;;
60014;SDS011;45867;52.480;6.056;2023-03-01T01:14:32;26.65;;;13.25;;
60014;SDS011;45867;52.480;6.056;2023-03-01T01:16:58;23.80;;;12.38;;
60014;SDS011;45867;52.480;6.056;2023-03-01T01:19:24;36.00;;;13.80;;
60014;SDS011;45867;52.480;6.056;2023-03-01T01:21:50;23.77;;;12.48;;
60014;SDS011;45867;52.480;6.056;2023-03-01T01:24:15;27.33;;;13.10;;
60014;SDS011;45867;52.480;6.056;2023-03-01T01:26:42;26.33;;;12.48;;
60014;SDS011;45867;52.480;6.056;2023-03-01T01:29:08;28.83;;;13.20;;
60014;SDS011;45867;52.480;6.056;2023-03-01T01:31:34;25.80;;;12.43;;
60014;SDS011;45867;52.480;6.056;2023-03-01T01:34:02;27.58;;;12.82;;
60014;SDS011;45867;52.480;6.056;2023-03-01T01:36:30;26.20;;;12.50;;
60014;SDS011;45867;52.480;6.056;2023-03-01T01:38:56;27.50;;;12.40;;
60014;SDS011;45867;52.480;6.056;2023-03-01T01:41:22;26.98;;;12.80;;
60014;SDS011;45867;52.480;6.056;2023-03-01T01:44:08;28.20;;;12.77;;
60014;SDS011;45867;52.480;6.056;2023-03-01T01:47:01;25.52;;;12.98;;
60014;SDS011;45867;52.480;6.056;2023-03-01T01:49:35;25.52;;;12.65;;
60014;SDS011;45867;52.480;6.056;2023-03-01T01:54:56;26.85;;;13.15;;
60014;SDS011;45867;52.480;6.056;2023-03-01T01:57:28;25.08;;;13.00;;
60014;SDS011;45867;52.480;6.056;2023-03-01T01:59:58;24.30;;;12.73;;
60014;SDS011;45867;52.480;6.056;2023-03-01T02:02:29;31.60;;;13.43;;
60014;SDS011;45867;52.480;6.056;2023-03-01T02:04:58;29.33;;;13.63;;
60014;SDS011;45867;52.480;6.056;2023-03-01T02:07:35;28.35;;;13.60;;
60014;SDS011;45867;52.480;6.056;2023-03-01T02:10:03;24.58;;;12.57;;
60014;SDS011;45867;52.480;6.056;2023-03-01T02:12:28;27.17;;;13.27;;
60014;SDS011;45867;52.480;6.056;2023-03-01T02:14:54;24.77;;;12.07;;
60014;SDS011;45867;52.480;6.056;2023-03-01T02:17:20;29.08;;;13.63;;
60014;SDS011;45867;52.480;6.056;2023-03-01T02:22:34;29.08;;;12.65;;
60014;SDS011;45867;52.480;6.056;2023-03-01T02:27:29;23.40;;;12.68;;
60014;SDS011;45867;52.480;6.056;2023-03-01T02:30:01;30.35;;;13.00;;
60014;SDS011;45867;52.480;6.056;2023-03-01T02:32:27;24.65;;;12.57;;
60014;SDS011;45867;52.480;6.056;2023-03-01T02:34:53;23.55;;;12.68;;
60014;SDS011;45867;52.480;6.056;2023-03-01T02:37:20;23.63;;;12.57;;
60014;SDS011;45867;52.480;6.056;2023-03-01T02:39:50;26.15;;;12.88;;
60014;SDS011;45867;52.480;6.056;2023-03-01T02:42:23;24.80;;;12.32;;
60014;SDS011;45867;52.480;6.056;2023-03-01T02:44:51;24.30;;;12.60;;
60014;SDS011;45867;52.480;6.056;2023-03-01T02:47:18;27.30;;;12.90;;
60014;SDS011;45867;52.480;6.056;2023-03-01T02:49:44;26.60;;;13.38;;
60014;SDS011;45867;52.480;6.056;2023-03-01T02:55:26;25.85;;;12.90;;
60014;SDS011;45867;52.480;6.056;2023-03-01T02:57:52;27.88;;;12.98;;
60014;SDS011;45867;52.480;6.056;2023-03-01T03:00:26;23.05;;;11.88;;
60014;SDS011;45867;52.480;6.056;2023-03-01T03:02:56;26.25;;;13.23;;
60014;SDS011;45867;52.480;6.056;2023-03-01T03:05:25;29.92;;;12.95;;
60014;SDS011;45867;52.480;6.056;2023-03-01T03:07:53;37.22;;;12.70;;
60014;SDS011;45867;52.480;6.056;2023-03-01T03:10:20;27.98;;;13.02;;
60014;SDS011;45867;52.480;6.056;2023-03-01T03:12:50;24.27;;;12.27;;
60014;SDS011;45867;52.480;6.056;2023-03-01T03:15:17;27.20;;;12.40;;
60014;SDS011;45867;52.480;6.056;2023-03-01T03:17:43;26.65;;;13.18;;
60014;SDS011;45867;52.480;6.056;2023-03-01T03:20:10;24.60;;;13.23;;
60014;SDS011;45867;52.480;6.056;2023-03-01T03:22:40;25.75;;;12.63;;
60014;SDS011;45867;52.480;6.056;2023-03-01T03:25:08;30.60;;;13.30;;
60014;SDS011;45867;52.480;6.056;2023-03-01T03:27:40;26.38;;;12.60;;
60014;SDS011;45867;52.480;6.056;2023-03-01T03:30:09;24.67;;;11.95;;
60014;SDS011;45867;52.480;6.056;2023-03-01T03:32:37;33.95;;;12.38;;
60014;SDS011;45867;52.480;6.056;2023-03-01T03:35:04;24.52;;;13.15;;
60014;SDS011;45867;52.480;6.056;2023-03-01T03:37:38;23.45;;;11.88;;
60014;SDS011;45867;52.480;6.056;2023-03-01T03:40:22;26.23;;;12.05;;
60014;SDS011;45867;52.480;6.056;2023-03-01T03:42:48;21.77;;;11.85;;
60014;SDS011;45867;52.480;6.056;2023-03-01T03:45:14;22.60;;;11.60;;
60014;SDS011;45867;52.480;6.056;2023-03-01T03:47:41;25.83;;;12.40;;
60014;SDS011;45867;52.480;6.056;2023-03-01T03:50:06;26.17;;;11.90;;
60014;SDS011;45867;52.480;6.056;2023-03-01T03:52:32;24.50;;;12.35;;
60014;SDS011;45867;52.480;6.056;2023-03-01T03:54:58;28.05;;;12.93;;
60014;SDS011;45867;52.480;6.056;2023-03-01T03:57:23;24.52;;;12.18;;
60014;SDS011;45867;52.480;6.056;2023-03-01T03:59:48;32.63;;;12.63;;
60014;SDS011;45867;52.480;6.056;2023-03-01T04:02:13;26.48;;;13.63;;
60014;SDS011;45867;52.480;6.056;2023-03-01T04:04:46;33.08;;;14.05;;
60014;SDS011;45867;52.480;6.056;2023-03-01T04:07:14;29.42;;;12.80;;
60014;SDS011;45867;52.480;6.056;2023-03-01T04:09:40;26.38;;;12.88;;
60014;SDS011;45867;52.480;6.056;2023-03-01T04:12:07;24.90;;;12.55;;
60014;SDS011;45867;52.480;6.056;2023-03-01T04:14:34;30.10;;;13.43;;
60014;SDS011;45867;52.480;6.056;2023-03-01T04:16:59;29.77;;;13.05;;
60014;SDS011;45867;52.480;6.056;2023-03-01T04:19:26;25.98;;;12.93;;
60014;SDS011;45867;52.480;6.056;2023-03-01T04:21:52;29.92;;;14.05;;
60014;SDS011;45867;52.480;6.056;2023-03-01T04:24:17;28.42;;;13.35;;
60014;SDS011;45867;52.480;6.056;2023-03-01T04:26:43;31.30;;;14.45;;
60014;SDS011;45867;52.480;6.056;2023-03-01T04:29:08;27.77;;;13.20;;
60014;SDS011;45867;52.480;6.056;2023-03-01T04:31:33;28.80;;;13.27;;
60014;SDS011;45867;52.480;6.056;2023-03-01T04:33:59;29.02;;;13.32;;
60014;SDS011;45867;52.480;6.056;2023-03-01T04:36:25;31.08;;;13.25;;
60014;SDS011;45867;52.480;6.056;2023-03-01T04:38:54;24.58;;;13.40;;
60014;SDS011;45867;52.480;6.056;2023-03-01T04:41:21;25.98;;;13.10;;
60014;SDS011;45867;52.480;6.056;2023-03-01T04:43:47;27.70;;;12.48;;
60014;SDS011;45867;52.480;6.056;2023-03-01T04:46:14;26.75;;;12.95;;
60014;SDS011;45867;52.480;6.056;2023-03-01T04:48:42;38.22;;;13.25;;
60014;SDS011;45867;52.480;6.056;2023-03-01T04:51:08;27.20;;;13.18;;
60014;SDS011;45867;52.480;6.056;2023-03-01T04:53:34;25.30;;;13.35;;
60014;SDS011;45867;52.480;6.056;2023-03-01T04:56:03;31.65;;;13.23;;
60014;SDS011;45867;52.480;6.056;2023-03-01T04:58:29;27.95;;;12.60;;
60014;SDS011;45867;52.480;6.056;2023-03-01T05:00:54;38.60;;;14.20;;
60014;SDS011;45867;52.480;6.056;2023-03-01T05:03:20;35.90;;;15.48;;
60014;SDS011;45867;52.480;6.056;2023-03-01T05:05:47;34.35;;;14.90;;
60014;SDS011;45867;52.480;6.056;2023-03-01T05:08:14;36.13;;;15.07;;
60014;SDS011;45867;52.480;6.056;2023-03-01T05:10:44;46.58;;;15.63;;
60014;SDS011;45867;52.480;6.056;2023-03-01T05:13:11;33.83;;;15.43;;
60014;SDS011;45867;52.480;6.056;2023-03-01T05:15:46;32.17;;;15.25;;
60014;SDS011;45867;52.480;6.056;2023-03-01T05:18:18;40.47;;;17.02;;
60014;SDS011;45867;52.480;6.056;2023-03-01T05:20:44;82.25;;;17.48;;
60014;SDS011;45867;52.480;6.056;2023-03-01T05:23:09;46.35;;;16.85;;
60014;SDS011;45867;52.480;6.056;2023-03-01T05:25:35;42.35;;;16.23;;
60014;SDS011;45867;52.480;6.056;2023-03-01T05:28:05;53.50;;;15.85;;
60014;SDS011;45867;52.480;6.056;2023-03-01T05:30:35;52.97;;;14.65;;
60014;SDS011;45867;52.480;6.056;2023-03-01T05:33:01;42.10;;;16.88;;
60014;SDS011;45867;52.480;6.056;2023-03-01T05:35:26;61.03;;;16.80;;
60014;SDS011;45867;52.480;6.056;2023-03-01T05:37:52;68.00;;;14.52;;
60014;SDS011;45867;52.480;6.056;2023-03-01T05:40:19;44.85;;;15.25;;
60014;SDS011;45867;52.480;6.056;2023-03-01T05:42:50;54.10;;;16.75;;
60014;SDS011;45867;52.480;6.056;2023-03-01T05:45:21;61.60;;;15.95;;
60014;SDS011;45867;52.480;6.056;2023-03-01T05:47:49;47.75;;;15.70;;
60014;SDS011;45867;52.480;6.056;2023-03-01T05:50:19;63.92;;;15.30;;
60014;SDS011;45867;52.480;6.056;2023-03-01T05:52:50;39.95;;;14.88;;
60014;SDS011;45867;52.480;6.056;2023-03-01T05:55:18;51.10;;;16.15;;
60014;SDS011;45867;52.480;6.056;2023-03-01T05:57:44;54.13;;;16.13;;
60014;SDS011;45867;52.480;6.056;2023-03-01T06:00:11;39.47;;;15.20;;
60014;SDS011;45867;52.480;6.056;2023-03-01T06:02:38;37.15;;;14.73;;
60014;SDS011;45867;52.480;6.056;2023-03-01T06:05:04;65.88;;;16.08;;
60014;SDS011;45867;52.480;6.056;2023-03-01T06:07:31;27.75;;;14.63;;
60014;SDS011;45867;52.480;6.056;2023-03-01T06:09:56;33.75;;;14.75;;
60014;SDS011;45867;52.480;6.056;2023-03-01T06:12:22;48.00;;;14.52;;
60014;SDS011;45867;52.480;6.056;2023-03-01T06:14:47;28.10;;;15.10;;
60014;SDS011;45867;52.480;6.056;2023-03-01T06:17:14;32.50;;;15.15;;
60014;SDS011;45867;52.480;6.056;2023-03-01T06:19:40;30.38;;;14.90;;
60014;SDS011;45867;52.480;6.056;2023-03-01T06:22:05;28.33;;;13.98;;
60014;SDS011;45867;52.480;6.056;2023-03-01T06:24:30;28.05;;;13.93;;
60014;SDS011;45867;52.480;6.056;2023-03-01T06:26:56;27.15;;;14.70;;
60014;SDS011;45867;52.480;6.056;2023-03-01T06:29:21;28.92;;;14.52;;
60014;SDS011;45867;52.480;6.056;2023-03-01T06:31:48;26.95;;;13.50;;
60014;SDS011;45867;52.480;6.056;2023-03-01T06:34:13;29.58;;;15.00;;
60014;SDS011;45867;52.480;6.056;2023-03-01T06:36:39;27.02;;;13.60;;
60014;SDS011;45867;52.480;6.056;2023-03-01T06:39:05;25.98;;;14.18;;
60014;SDS011;45867;52.480;6.056;2023-03-01T06:41:31;33.25;;;15.05;;
60014;SDS011;45867;52.480;6.056;2023-03-01T06:43:57;23.85;;;13.38;;
60014;SDS011;45867;52.480;6.056;2023-03-01T06:46:23;28.63;;;14.10;;
60014;SDS011;45867;52.480;6.056;2023-03-01T06:48:48;26.08;;;13.40;;
60014;SDS011;45867;52.480;6.056;2023-03-01T06:51:14;25.70;;;13.20;;
60014;SDS011;45867;52.480;6.056;2023-03-01T06:53:39;28.77;;;14.23;;
60014;SDS011;45867;52.480;6.056;2023-03-01T06:56:04;30.42;;;13.35;;
60014;SDS011;45867;52.480;6.056;2023-03-01T06:58:30;26.50;;;13.93;;
60014;SDS011;45867;52.480;6.056;2023-03-01T07:00:55;26.08;;;14.30;;
60014;SDS011;45867;52.480;6.056;2023-03-01T07:03:20;25.65;;;14.13;;
60014;SDS011;45867;52.480;6.056;2023-03-01T07:05:48;26.75;;;14.38;;
60014;SDS011;45867;52.480;6.056;2023-03-01T07:08:14;23.25;;;12.50;;
60014;SDS011;45867;52.480;6.056;2023-03-01T07:10:40;27.55;;;14.52;;
60014;SDS011;45867;52.480;6.056;2023-03-01T07:13:05;27.25;;;13.82;;
60014;SDS011;45867;52.480;6.056;2023-03-01T07:15:31;30.00;;;15.60;;
60014;SDS011;45867;52.480;6.056;2023-03-01T07:17:57;28.13;;;14.70;;
60014;SDS011;45867;52.480;6.056;2023-03-01T07:20:23;33.28;;;15.85;;
60014;SDS011;45867;52.480;6.056;2023-03-01T07:22:50;29.73;;;15.13;;
60014;SDS011;45867;52.480;6.056;2023-03-01T07:25:16;32.92;;;16.85;;
60014;SDS011;45867;52.480;6.056;2023-03-01T07:27:42;31.27;;;16.75;;
60014;SDS011;45867;52.480;6.056;2023-03-01T07:30:07;29.27;;;15.57;;
60014;SDS011;45867;52.480;6.056;2023-03-01T07:32:33;33.92;;;16.30;;
60014;SDS011;45867;52.480;6.056;2023-03-01T07:34:59;29.58;;;15.63;;
60014;SDS011;45867;52.480;6.056;2023-03-01T07:37:24;27.92;;;15.43;;
60014;SDS011;45867;52.480;6.056;2023-03-01T07:39:49;29.50;;;15.50;;
60014;SDS011;45867;52.480;6.056;2023-03-01T07:42:15;31.05;;;17.02;;
60014;SDS011;45867;52.480;6.056;2023-03-01T07:44:40;31.67;;;17.95;;
60014;SDS011;45867;52.480;6.056;2023-03-01T07:47:05;32.10;;;16.55;;
60014;SDS011;45867;52.480;6.056;2023-03-01T07:49:30;38.85;;;18.58;;
60014;SDS011;45867;52.480;6.056;2023-03-01T07:51:56;33.55;;;17.70;;
60014;SDS011;45867;52.480;6.056;2023-03-01T07:54:21;38.53;;;18.95;;
60014;SDS011;45867;52.480;6.056;2023-03-01T07:56:46;35.70;;;19.27;;
60014;SDS011;45867;52.480;6.056;2023-03-01T07:59:12;41.13;;;19.42;;
60014;SDS011;45867;52.480;6.056;2023-03-01T08:01:37;43.13;;;21.38;;
60014;SDS011;45867;52.480;6.056;2023-03-01T08:04:02;49.20;;;22.20;;
60014;SDS011;45867;52.480;6.056;2023-03-01T08:06:31;52.33;;;23.65;;
60014;SDS011;45867;52.480;6.056;2023-03-01T08:08:58;50.20;;;22.67;;
60014;SDS011;45867;52.480;6.056;2023-03-01T08:11:24;50.00;;;23.40;;
60014;SDS011;45867;52.480;6.056;2023-03-01T08:13:49;44.70;;;21.88;;
60014;SDS011;45867;52.480;6.056;2023-03-01T08:16:15;53.08;;;23.52;;
60014;SDS011;45867;52.480;6.056;2023-03-01T08:18:41;44.63;;;22.60;;
60014;SDS011;45867;52.480;6.056;2023-03-01T08:21:08;52.20;;;24.38;;
60014;SDS011;45867;52.480;6.056;2023-03-01T08:23:38;46.55;;;22.85;;
60014;SDS011;45867;52.480;6.056;2023-03-01T08:26:13;48.40;;;23.90;;
60014;SDS011;45867;52.480;6.056;2023-03-01T08:28:41;46.92;;;23.40;;
60014;SDS011;45867;52.480;6.056;2023-03-01T08:31:21;44.63;;;22.38;;
60014;SDS011;45867;52.480;6.056;2023-03-01T08:33:48;50.10;;;23.83;;
60014;SDS011;45867;52.480;6.056;2023-03-01T08:36:20;45.13;;;22.08;;
60014;SDS011;45867;52.480;6.056;2023-03-01T08:38:57;50.80;;;22.95;;
60014;SDS011;45867;52.480;6.056;2023-03-01T08:41:22;43.85;;;22.15;;
60014;SDS011;45867;52.480;6.056;2023-03-01T08:43:48;42.28;;;21.33;;
60014;SDS011;45867;52.480;6.056;2023-03-01T08:46:14;43.88;;;23.08;;
60014;SDS011;45867;52.480;6.056;2023-03-01T08:48:39;44.63;;;21.60;;
60014;SDS011;45867;52.480;6.056;2023-03-01T08:51:09;42.85;;;19.77;;
60014;SDS011;45867;52.480;6.056;2023-03-01T08:53:35;38.53;;;19.73;;
60014;SDS011;45867;52.480;6.056;2023-03-01T08:56:01;34.90;;;17.77;;
60014;SDS011;45867;52.480;6.056;2023-03-01T08:58:27;34.58;;;15.35;;
60014;SDS011;45867;52.480;6.056;2023-03-01T09:00:53;31.77;;;16.00;;
60014;SDS011;45867;52.480;6.056;2023-03-01T09:03:18;27.95;;;16.13;;
60014;SDS011;45867;52.480;6.056;2023-03-01T09:05:44;27.52;;;14.95;;
60014;SDS011;45867;52.480;6.056;2023-03-01T09:08:10;26.33;;;14.45;;
60014;SDS011;45867;52.480;6.056;2023-03-01T09:10:37;28.20;;;14.93;;
60014;SDS011;45867;52.480;6.056;2023-03-01T09:13:04;25.95;;;14.52;;
60014;SDS011;45867;52.480;6.056;2023-03-01T09:15:29;28.45;;;13.05;;
60014;SDS011;45867;52.480;6.056;2023-03-01T09:17:55;24.42;;;13.43;;
60014;SDS011;45867;52.480;6.056;2023-03-01T09:20:20;23.35;;;12.30;;
60014;SDS011;45867;52.480;6.056;2023-03-01T09:22:45;22.45;;;11.25;;
60014;SDS011;45867;52.480;6.056;2023-03-01T09:25:10;21.42;;;12.27;;
60014;SDS011;45867;52.480;6.056;2023-03-01T09:27:36;21.55;;;12.27;;
60014;SDS011;45867;52.480;6.056;2023-03-01T09:30:01;21.88;;;12.23;;
60014;SDS011;45867;52.480;6.056;2023-03-01T09:32:29;25.65;;;11.50;;
60014;SDS011;45867;52.480;6.056;2023-03-01T09:34:55;24.95;;;11.68;;
60014;SDS011;45867;52.480;6.056;2023-03-01T09:37:28;19.10;;;11.15;;
60014;SDS011;45867;52.480;6.056;2023-03-01T09:39:54;19.50;;;10.15;;
60014;SDS011;45867;52.480;6.056;2023-03-01T09:42:19;21.60;;;10.10;;
60014;SDS011;45867;52.480;6.056;2023-03-01T09:44:55;15.48;;;8.40;;
60014;SDS011;45867;52.480;6.056;2023-03-01T09:47:33;11.52;;;7.68;;
60014;SDS011;45867;52.480;6.056;2023-03-01T09:55:17;16.15;;;7.93;;
60014;SDS011;45867;52.480;6.056;2023-03-01T09:57:53;13.50;;;7.65;;
60014;SDS011;45867;52.480;6.056;2023-03-01T10:11:17;13.68;;;8.57;;
60014;SDS011;45867;52.480;6.056;2023-03-01T10:13:48;14.00;;;6.80;;
60014;SDS011;45867;52.480;6.056;2023-03-01T10:16:32;16.60;;;6.78;;
60014;SDS011;45867;52.480;6.056;2023-03-01T10:19:05;12.20;;;6.57;;
60014;SDS011;45867;52.480;6.056;2023-03-01T10:21:36;9.20;;;5.25;;
60014;SDS011;45867;52.480;6.056;2023-03-01T10:24:10;9.77;;;5.57;;
60014;SDS011;45867;52.480;6.056;2023-03-01T10:29:11;10.20;;;5.75;;
60014;SDS011;45867;52.480;6.056;2023-03-01T10:31:39;10.82;;;5.90;;
60014;SDS011;45867;52.480;6.056;2023-03-01T10:34:19;11.57;;;5.82;;
60014;SDS011;45867;52.480;6.056;2023-03-01T10:36:48;8.77;;;5.20;;
60014;SDS011;45867;52.480;6.056;2023-03-01T10:39:19;9.07;;;3.75;;
60014;SDS011;45867;52.480;6.056;2023-03-01T10:41:58;4.83;;;3.63;;
60014;SDS011;45867;52.480;6.056;2023-03-01T10:47:02;6.90;;;3.80;;
60014;SDS011;45867;52.480;6.056;2023-03-01T10:49:29;6.32;;;4.20;;
60014;SDS011;45867;52.480;6.056;2023-03-01T10:51:54;7.40;;;3.72;;
60014;SDS011;45867;52.480;6.056;2023-03-01T10:56:53;8.32;;;4.57;;
60014;SDS011;45867;52.480;6.056;2023-03-01T10:59:28;15.07;;;4.63;;
60014;SDS011;45867;52.480;6.056;2023-03-01T11:02:29;8.25;;;4.90;;
60014;SDS011;45867;52.480;6.056;2023-03-01T11:05:03;7.80;;;4.32;;
60014;SDS011;45867;52.480;6.056;2023-03-01T11:07:48;7.55;;;4.70;;
60014;SDS011;45867;52.480;6.056;2023-03-01T11:10:19;7.90;;;5.10;;
60014;SDS011;45867;52.480;6.056;2023-03-01T11:12:47;10.10;;;5.35;;
60014;SDS011;45867;52.480;6.056;2023-03-01T11:15:19;6.93;;;5.20;;
60014;SDS011;45867;52.480;6.056;2023-03-01T11:17:47;8.07;;;5.32;;
60014;SDS011;45867;52.480;6.056;2023-03-01T11:22:45;8.70;;;4.75;;
60014;SDS011;45867;52.480;6.056;2023-03-01T11:25:14;10.90;;;5.15;;
60014;SDS011;45867;52.480;6.056;2023-03-01T11:27:43;8.30;;;4.60;;
60014;SDS011;45867;52.480;6.056;2023-03-01T11:30:21;8.63;;;4.50;;
60014;SDS011;45867;52.480;6.056;2023-03-01T11:35:32;7.53;;;4.57;;
60014;SDS011;45867;52.480;6.056;2023-03-01T11:40:54;9.85;;;4.30;;
60014;SDS011;45867;52.480;6.056;2023-03-01T11:54:33;11.95;;;4.80;;
60014;SDS011;45867;52.480;6.056;2023-03-01T12:02:38;9.68;;;5.32;;
60014;SDS011;45867;52.480;6.056;2023-03-01T12:08:25;9.88;;;5.75;;
60014;SDS011;45867;52.480;6.056;2023-03-01T12:22:28;7.95;;;5.15;;
60014;SDS011;45867;52.480;6.056;2023-03-01T12:28:13;9.98;;;5.85;;
60014;SDS011;45867;52.480;6.056;2023-03-01T12:31:02;8.43;;;4.90;;
60014;SDS011;45867;52.480;6.056;2023-03-01T12:33:51;11.20;;;4.80;;
60014;SDS011;45867;52.480;6.056;2023-03-01T12:39:10;9.02;;;5.40;;
60014;SDS011;45867;52.480;6.056;2023-03-01T12:42:08;8.85;;;5.63;;
60014;SDS011;45867;52.480;6.056;2023-03-01T12:44:40;9.15;;;5.32;;
60014;SDS011;45867;52.480;6.056;2023-03-01T12:47:23;12.52;;;5.50;;
60014;SDS011;45867;52.480;6.056;2023-03-01T12:50:03;11.20;;;5.10;;
60014;SDS011;45867;52.480;6.056;2023-03-01T12:52:47;7.32;;;4.97;;
60014;SDS011;45867;52.480;6.056;2023-03-01T12:55:31;11.88;;;5.38;;
60014;SDS011;45867;52.480;6.056;2023-03-01T13:00:36;8.23;;;4.90;;
60014;SDS011;45867;52.480;6.056;2023-03-01T13:08:55;8.55;;;5.20;;
60014;SDS011;45867;52.480;6.056;2023-03-01T13:11:29;10.57;;;5.47;;
60014;SDS011;45867;52.480;6.056;2023-03-01T13:14:44;12.10;;;5.13;;
60014;SDS011;45867;52.480;6.056;2023-03-01T13:16:46;11.25;;;4.80;;
60014;SDS011;45867;52.480;6.056;2023-03-01T13:19:17;11.93;;;4.95;;
60014;SDS011;45867;52.480;6.056;2023-03-01T13:21:45;12.55;;;6.90;;
60014;SDS011;45867;52.480;6.056;2023-03-01T13:34:56;10.48;;;5.78;;
60014;SDS011;45867;52.480;6.056;2023-03-01T13:37:29;8.77;;;5.50;;
60014;SDS011;45867;52.480;6.056;2023-03-01T13:42:49;9.85;;;5.75;;
60014;SDS011;45867;52.480;6.056;2023-03-01T13:45:20;10.25;;;5.78;;
60014;SDS011;45867;52.480;6.056;2023-03-01T13:48:09;9.18;;;5.13;;
60014;SDS011;45867;52.480;6.056;2023-03-01T13:51:03;9.25;;;5.50;;
60014;SDS011;45867;52.480;6.056;2023-03-01T13:53:36;10.82;;;5.43;;
60014;SDS011;45867;52.480;6.056;2023-03-01T13:56:09;10.50;;;5.38;;
60014;SDS011;45867;52.480;6.056;2023-03-01T13:59:39;10.02;;;5.15;;
60014;SDS011;45867;52.480;6.056;2023-03-01T14:01:42;8.95;;;5.57;;
60014;SDS011;45867;52.480;6.056;2023-03-01T14:04:19;8.05;;;5.28;;
60014;SDS011;45867;52.480;6.056;2023-03-01T14:09:58;9.80;;;5.40;;
60014;SDS011;45867;52.480;6.056;2023-03-01T14:12:33;13.00;;;5.50;;
60014;SDS011;45867;52.480;6.056;2023-03-01T14:18:15;9.82;;;5.25;;
60014;SDS011;45867;52.480;6.056;2023-03-01T14:20:49;9.63;;;5.32;;
60014;SDS011;45867;52.480;6.056;2023-03-01T14:23:20;11.98;;;5.57;;
60014;SDS011;45867;52.480;6.056;2023-03-01T14:25:57;8.70;;;4.88;;
60014;SDS011;45867;52.480;6.056;2023-03-01T14:28:24;13.20;;;5.30;;
60014;SDS011;45867;52.480;6.056;2023-03-01T14:30:52;8.70;;;5.38;;
60014;SDS011;45867;52.480;6.056;2023-03-01T14:33:24;10.73;;;5.38;;
60014;SDS011;45867;52.480;6.056;2023-03-01T14:35:55;10.60;;;5.38;;
60014;SDS011;45867;52.480;6.056;2023-03-01T14:38:44;8.95;;;5.18;;
60014;SDS011;45867;52.480;6.056;2023-03-01T14:41:18;8.98;;;5.60;;
60014;SDS011;45867;52.480;6.056;2023-03-01T14:43:50;8.57;;;5.72;;
60014;SDS011;45867;52.480;6.056;2023-03-01T14:46:21;9.85;;;6.35;;
60014;SDS011;45867;52.480;6.056;2023-03-01T14:51:41;9.40;;;5.63;;
60014;SDS011;45867;52.480;6.056;2023-03-01T14:54:18;9.65;;;5.78;;
60014;SDS011;45867;52.480;6.056;2023-03-01T14:57:05;9.35;;;5.85;;
60014;SDS011;45867;52.480;6.056;2023-03-01T14:59:32;9.55;;;5.13;;
60014;SDS011;45867;52.480;6.056;2023-03-01T15:01:58;10.63;;;5.88;;
60014;SDS011;45867;52.480;6.056;2023-03-01T15:04:25;9.27;;;5.32;;
60014;SDS011;45867;52.480;6.056;2023-03-01T15:06:55;13.35;;;5.80;;
60014;SDS011;45867;52.480;6.056;2023-03-01T15:09:29;12.40;;;6.03;;
60014;SDS011;45867;52.480;6.056;2023-03-01T15:11:58;13.02;;;5.70;;
60014;SDS011;45867;52.480;6.056;2023-03-01T15:14:28;10.60;;;5.93;;
60014;SDS011;45867;52.480;6.056;2023-03-01T15:17:29;8.98;;;5.53;;
60014;SDS011;45867;52.480;6.056;2023-03-01T15:19:58;11.30;;;5.68;;
60014;SDS011;45867;52.480;6.056;2023-03-01T15:22:25;8.85;;;4.88;;
60014;SDS011;45867;52.480;6.056;2023-03-01T15:24:51;9.20;;;5.53;;
60014;SDS011;45867;52.480;6.056;2023-03-01T15:27:19;9.18;;;5.78;;
60014;SDS011;45867;52.480;6.056;2023-03-01T15:29:48;10.40;;;5.40;;
60014;SDS011;45867;52.480;6.056;2023-03-01T15:34:49;10.80;;;5.72;;
60014;SDS011;45867;52.480;6.056;2023-03-01T15:40:22;13.82;;;5.95;;
60014;SDS011;45867;52.480;6.056;2023-03-01T15:42:59;11.80;;;6.28;;
60014;SDS011;45867;52.480;6.056;2023-03-01T15:45:27;10.15;;;5.68;;
60014;SDS011;45867;52.480;6.056;2023-03-01T15:47:55;10.40;;;5.65;;
60014;SDS011;45867;52.480;6.056;2023-03-01T15:50:27;11.13;;;5.88;;
60014;SDS011;45867;52.480;6.056;2023-03-01T15:52:54;8.07;;;5.45;;
60014;SDS011;45867;52.480;6.056;2023-03-01T15:55:25;11.75;;;6.07;;
60014;SDS011;45867;52.480;6.056;2023-03-01T16:00:30;11.23;;;6.10;;
60014;SDS011;45867;52.480;6.056;2023-03-01T16:02:55;10.90;;;5.80;;
60014;SDS011;45867;52.480;6.056;2023-03-01T16:05:25;12.77;;;5.63;;
60014;SDS011;45867;52.480;6.056;2023-03-01T16:10:19;10.50;;;5.32;;
60014;SDS011;45867;52.480;6.056;2023-03-01T16:12:44;13.27;;;5.97;;
60014;SDS011;45867;52.480;6.056;2023-03-01T16:15:16;10.85;;;5.22;;
60014;SDS011;45867;52.480;6.056;2023-03-01T16:17:45;10.75;;;5.10;;
60014;SDS011;45867;52.480;6.056;2023-03-01T16:20:11;11.18;;;5.72;;
60014;SDS011;45867;52.480;6.056;2023-03-01T16:22:36;13.50;;;5.40;;
60014;SDS011;45867;52.480;6.056;2023-03-01T16:25:02;10.30;;;5.57;;
60014;SDS011;45867;52.480;6.056;2023-03-01T16:27:28;9.27;;;5.60;;
60014;SDS011;45867;52.480;6.056;2023-03-01T16:29:53;14.60;;;6.00;;
60014;SDS011;45867;52.480;6.056;2023-03-01T16:32:19;11.55;;;5.50;;
60014;SDS011;45867;52.480;6.056;2023-03-01T16:34:44;10.82;;;5.90;;
60014;SDS011;45867;52.480;6.056;2023-03-01T16:37:10;14.07;;;6.38;;
60014;SDS011;45867;52.480;6.056;2023-03-01T16:39:37;13.55;;;6.43;;
60014;SDS011;45867;52.480;6.056;2023-03-01T16:42:03;18.40;;;6.70;;
60014;SDS011;45867;52.480;6.056;2023-03-01T16:44:29;13.93;;;7.13;;
60014;SDS011;45867;52.480;6.056;2023-03-01T16:46:55;11.82;;;6.90;;
60014;SDS011;45867;52.480;6.056;2023-03-01T16:49:23;12.82;;;6.88;;
60014;SDS011;45867;52.480;6.056;2023-03-01T16:51:48;15.95;;;6.68;;
60014;SDS011;45867;52.480;6.056;2023-03-01T16:54:14;13.68;;;7.25;;
60014;SDS011;45867;52.480;6.056;2023-03-01T16:56:39;16.02;;;7.93;;
60014;SDS011;45867;52.480;6.056;2023-03-01T16:59:05;12.10;;;7.40;;
60014;SDS011;45867;52.480;6.056;2023-03-01T17:01:31;14.95;;;8.27;;
60014;SDS011;45867;52.480;6.056;2023-03-01T17:04:04;16.17;;;7.82;;
60014;SDS011;45867;52.480;6.056;2023-03-01T17:06:30;17.30;;;7.97;;
60014;SDS011;45867;52.480;6.056;2023-03-01T17:08:57;17.42;;;8.52;;
60014;SDS011;45867;52.480;6.056;2023-03-01T17:11:24;13.70;;;7.72;;
60014;SDS011;45867;52.480;6.056;2023-03-01T17:13:49;15.23;;;8.77;;
60014;SDS011;45867;52.480;6.056;2023-03-01T17:16:16;15.23;;;8.57;;
60014;SDS011;45867;52.480;6.056;2023-03-01T17:18:43;18.27;;;8.48;;
60014;SDS011;45867;52.480;6.056;2023-03-01T17:21:09;22.10;;;9.70;;
60014;SDS011;45867;52.480;6.056;2023-03-01T17:23:36;20.33;;;9.48;;
60014;SDS011;45867;52.480;6.056;2023-03-01T17:26:04;19.02;;;9.90;;
60014;SDS011;45867;52.480;6.056;2023-03-01T17:28:31;18.67;;;9.13;;
60014;SDS011;45867;52.480;6.056;2023-03-01T17:31:01;16.98;;;9.40;;
60014;SDS011;45867;52.480;6.056;2023-03-01T17:33:28;19.40;;;10.00;;
60014;SDS011;45867;52.480;6.056;2023-03-01T17:35:57;16.70;;;9.48;;
60014;SDS011;45867;52.480;6.056;2023-03-01T17:38:23;19.45;;;9.93;;
60014;SDS011;45867;52.480;6.056;2023-03-01T17:40:49;17.08;;;9.32;;
60014;SDS011;45867;52.480;6.056;2023-03-01T17:43:16;21.58;;;9.95;;